This is the latest recevied weather packets stored in our database for station/object 9M2SPN-3. If no packets are shown the sender has not sent any weather packets the latest 10 day(s).
| Time | Temp. | Humidity | Pressure | Rain* | Wind** | Luminosity | Snow |
|---|---|---|---|---|---|---|---|
| 1788523205 | 38.33° C | 49% | 1007.1 hPa | - | - | - | - |
| 1788521404 | 38.89° C | 49% | 1006.7 hPa | - | - | - | - |
| 1788519603 | 39.44° C | 46% | 1006.5 hPa | - | - | - | - |
| 1788517802 | 39.44° C | 45% | 1006.1 hPa | - | - | - | - |
| 1788516001 | 40° C | 43% | 1005.9 hPa | - | - | - | - |
| 1788514201 | 40.56° C | 42% | 1005.7 hPa | - | - | - | - |
| 1788512400 | 40.56° C | 42% | 1005.8 hPa | - | - | - | - |
| 1788510599 | 40.56° C | 42% | 1006 hPa | - | - | - | - |
| 1788508798 | 40.56° C | 42% | 1006.1 hPa | - | - | - | - |
| 1788506997 | 41.11° C | 41% | 1006.4 hPa | - | - | - | - |
| 1788505197 | 40.56° C | 42% | 1006.8 hPa | - | - | - | - |
| 1788503396 | 40.56° C | 43% | 1007.2 hPa | - | - | - | - |
| 1788501595 | 40° C | 44% | 1007.7 hPa | - | - | - | - |
| 1788499794 | 40.56° C | 44% | 1008.1 hPa | - | - | - | - |
| 1788497993 | 40° C | 44% | 1008.8 hPa | - | - | - | - |
| 1788496192 | 39.44° C | 46% | 1009.2 hPa | - | - | - | - |
| 1788494391 | 38.89° C | 47% | 1009.3 hPa | - | - | - | - |
| 1788492590 | 38.89° C | 49% | 1009.9 hPa | - | - | - | - |
| 1788490789 | 38.89° C | 49% | 1010.1 hPa | - | - | - | - |
| 1788488989 | 38.89° C | 49% | 1010.2 hPa | - | - | - | - |
| 1788487188 | 38.33° C | 50% | 1010.3 hPa | - | - | - | - |
| 1788485387 | 37.22° C | 51% | 1010.3 hPa | - | - | - | - |
| 1788483586 | 36.67° C | 52% | 1010.1 hPa | - | - | - | - |
| 1788481785 | 35.56° C | 53% | 1009.9 hPa | - | - | - | - |
| 1788479985 | 35° C | 56% | 1009.7 hPa | - | - | - | - |
* Rain since midnight (hover to see other rain measurements)
** Current wind speed in m/s (hover to see current wind gust speed)